createdAt,value
2022-08-03T00:00:54.339Z,1003.5
2022-08-03T00:01:56.406Z,1003.5
2022-08-03T00:02:58.413Z,1003.5
2022-08-03T00:04:00.349Z,1003.4
2022-08-03T00:05:02.591Z,1003.4
2022-08-03T00:06:05.181Z,1003.4
2022-08-03T00:07:06.380Z,1003.4
2022-08-03T00:08:08.416Z,1003.4
2022-08-03T00:09:10.379Z,1003.4
2022-08-03T00:10:12.366Z,1003.5
2022-08-03T00:11:14.401Z,1003.5
2022-08-03T00:12:16.571Z,1003.5
2022-08-03T00:13:19.024Z,1003.5
2022-08-03T00:14:20.420Z,1003.5
2022-08-03T00:15:22.388Z,1003.5
2022-08-03T00:16:24.560Z,1003.5
2022-08-03T00:17:26.366Z,1003.5
2022-08-03T00:18:28.379Z,1003.5
2022-08-03T00:19:30.417Z,1003.5
2022-08-03T00:20:32.490Z,1003.5
2022-08-03T00:21:34.372Z,1003.5
2022-08-03T00:22:36.392Z,1003.5
2022-08-03T00:23:51.027Z,1003.4
2022-08-03T00:24:40.382Z,1003.4
2022-08-03T00:25:42.419Z,1003.4
2022-08-03T00:26:44.402Z,1003.4
2022-08-03T00:27:47.816Z,1003.5
2022-08-03T00:28:48.398Z,1003.5
2022-08-03T00:29:57.507Z,1003.4
2022-08-03T00:30:52.435Z,1003.5
2022-08-03T00:31:59.293Z,1003.4
2022-08-03T00:32:56.397Z,1003.4
2022-08-03T00:33:59.810Z,1003.4
2022-08-03T00:35:00.408Z,1003.4
2022-08-03T00:36:02.413Z,1003.4
2022-08-03T00:37:04.454Z,1003.4
2022-08-03T00:38:06.439Z,1003.4
2022-08-03T00:39:08.396Z,1003.4
2022-08-03T00:40:10.449Z,1003.4
2022-08-03T00:41:12.441Z,1003.4
2022-08-03T00:42:14.632Z,1003.4
2022-08-03T00:43:16.417Z,1003.4
2022-08-03T00:44:18.421Z,1003.4
2022-08-03T00:45:20.439Z,1003.4
2022-08-03T00:46:22.648Z,1003.4
2022-08-03T00:47:24.428Z,1003.5
2022-08-03T00:48:29.839Z,1003.4
2022-08-03T00:49:28.531Z,1003.4
2022-08-03T00:50:30.453Z,1003.4
2022-08-03T00:51:32.438Z,1003.4
2022-08-03T00:52:34.434Z,1003.4
2022-08-03T00:53:36.477Z,1003.4
2022-08-03T00:54:38.434Z,1003.4
2022-08-03T00:55:40.438Z,1003.4
2022-08-03T00:56:59.200Z,1003.4
2022-08-03T00:57:44.438Z,1003.4
2022-08-03T00:58:46.473Z,1003.4
2022-08-03T00:59:48.439Z,1003.4
2022-08-03T01:00:50.509Z,1003.4
2022-08-03T01:01:52.455Z,1003.4
2022-08-03T01:02:54.701Z,1003.4
2022-08-03T01:03:56.475Z,1003.4
2022-08-03T01:04:58.446Z,1003.4
2022-08-03T01:06:00.475Z,1003.4
2022-08-03T01:07:02.455Z,1003.4
2022-08-03T01:08:04.490Z,1003.4
2022-08-03T01:09:06.453Z,1003.4
2022-08-03T01:10:08.486Z,1003.4
2022-08-03T01:11:10.488Z,1003.4
2022-08-03T01:12:12.461Z,1003.4
2022-08-03T01:13:59.842Z,1003.4
2022-08-03T01:14:19.135Z,1003.4
2022-08-03T01:15:18.905Z,1003.4
2022-08-03T01:16:20.478Z,1003.4
2022-08-03T01:17:22.479Z,1003.4
2022-08-03T01:18:24.473Z,1003.4
2022-08-03T01:19:27.911Z,1003.4
2022-08-03T01:20:29.513Z,1003.4
2022-08-03T01:21:31.481Z,1003.4
2022-08-03T01:22:33.495Z,1003.4
2022-08-03T01:23:35.491Z,1003.4
2022-08-03T01:24:37.517Z,1003.4
2022-08-03T01:25:39.513Z,1003.4
2022-08-03T01:26:41.482Z,1003.4
2022-08-03T01:27:43.494Z,1003.3
2022-08-03T01:28:45.767Z,1003.3
2022-08-03T01:29:47.512Z,1003.3
2022-08-03T01:30:49.517Z,1003.3
2022-08-03T01:32:52.276Z,1003.3
2022-08-03T01:33:00.460Z,1003.2
2022-08-03T01:33:55.510Z,1003.2
2022-08-03T01:34:57.510Z,1003.3
2022-08-03T01:35:59.544Z,1003.3
2022-08-03T01:37:01.515Z,1003.2
2022-08-03T01:38:03.510Z,1003.3
2022-08-03T01:39:05.542Z,1003.3
2022-08-03T01:40:07.537Z,1003.3
2022-08-03T01:41:09.519Z,1003.2
2022-08-03T01:42:12.121Z,1003.2
2022-08-03T01:43:13.512Z,1003.2
2022-08-03T01:44:28.839Z,1003.2
2022-08-03T01:45:17.524Z,1003.2
2022-08-03T01:46:19.535Z,1003.2
2022-08-03T01:47:21.533Z,1003.2
2022-08-03T01:48:23.513Z,1003.1
2022-08-03T01:49:25.587Z,1003.2
2022-08-03T01:50:27.549Z,1003.2
2022-08-03T01:51:58.718Z,1003.2
2022-08-03T01:52:31.555Z,1003.1
2022-08-03T01:53:33.557Z,1003.1
2022-08-03T01:54:35.544Z,1003.1
2022-08-03T01:55:37.530Z,1003.1
2022-08-03T01:56:39.526Z,1003.1
2022-08-03T01:58:05.119Z,1003.1
2022-08-03T01:58:43.550Z,1003.1
2022-08-03T01:59:45.538Z,1003.1
2022-08-03T02:00:47.557Z,1003.2
2022-08-03T02:02:15.025Z,1003.1
2022-08-03T02:02:51.614Z,1003.1
2022-08-03T02:04:00.365Z,1003.1
2022-08-03T02:04:55.601Z,1003.1
2022-08-03T02:06:18.102Z,1003.1
2022-08-03T02:07:00.914Z,1003
2022-08-03T02:08:01.810Z,1003
2022-08-03T02:09:03.545Z,1003
2022-08-03T02:10:05.611Z,1003
2022-08-03T02:11:07.548Z,1003
2022-08-03T02:12:10.487Z,1003
2022-08-03T02:13:12.567Z,1003
2022-08-03T02:14:14.572Z,1003
2022-08-03T02:15:16.597Z,1003
2022-08-03T02:16:18.558Z,1003
2022-08-03T02:17:38.838Z,1003
2022-08-03T02:18:25.530Z,1003
2022-08-03T02:19:29.465Z,1003
2022-08-03T02:20:29.612Z,1003
2022-08-03T02:21:56.138Z,1003
2022-08-03T02:22:33.635Z,1003
2022-08-03T02:23:35.583Z,1003
2022-08-03T02:24:37.642Z,1003
2022-08-03T02:25:39.601Z,1003
2022-08-03T02:26:41.580Z,1003
2022-08-03T02:27:44.026Z,1003
2022-08-03T02:28:45.579Z,1003
2022-08-03T02:29:47.594Z,1003
2022-08-03T02:30:51.718Z,1003
2022-08-03T02:31:51.590Z,1002.9
2022-08-03T02:32:53.619Z,1003
2022-08-03T02:33:55.594Z,1002.9
2022-08-03T02:34:57.601Z,1003
2022-08-03T02:35:59.624Z,1003
2022-08-03T02:37:01.664Z,1003
2022-08-03T02:38:03.806Z,1003
2022-08-03T02:39:05.606Z,1003
2022-08-03T02:40:07.638Z,1003
2022-08-03T02:41:09.603Z,1003
2022-08-03T02:42:12.113Z,1003
2022-08-03T02:43:13.638Z,1003
2022-08-03T02:44:15.608Z,1003
2022-08-03T02:45:17.617Z,1003
2022-08-03T02:46:19.610Z,1003
2022-08-03T02:47:21.645Z,1003
2022-08-03T02:48:23.639Z,1003
2022-08-03T02:49:35.243Z,1003
2022-08-03T02:50:28.870Z,1003
2022-08-03T02:51:34.772Z,1003
2022-08-03T02:52:37.634Z,1003.1
2022-08-03T02:53:39.628Z,1003
2022-08-03T02:54:41.789Z,1003
2022-08-03T02:55:45.773Z,1003
2022-08-03T02:56:45.639Z,1003
2022-08-03T02:57:47.638Z,1003.1
2022-08-03T02:58:49.640Z,1003.1
2022-08-03T02:59:51.665Z,1003.1
2022-08-03T03:00:53.789Z,1003
2022-08-03T03:01:55.681Z,1003
2022-08-03T03:02:57.643Z,1003
2022-08-03T03:03:59.651Z,1003
2022-08-03T03:05:51.921Z,1003
2022-08-03T03:06:04.869Z,1003
2022-08-03T03:07:05.667Z,1003
2022-08-03T03:08:17.865Z,1003.1
2022-08-03T03:09:09.648Z,1003.1
2022-08-03T03:10:11.652Z,1003
2022-08-03T03:11:13.709Z,1003
2022-08-03T03:12:15.868Z,1003.1
2022-08-03T03:13:18.639Z,1003.1
2022-08-03T03:14:33.564Z,1003.1
2022-08-03T03:15:22.655Z,1003.1
2022-08-03T03:16:24.733Z,1003.1
2022-08-03T03:17:26.674Z,1003.1
2022-08-03T03:18:28.658Z,1003.1
2022-08-03T03:19:30.665Z,1003.1
2022-08-03T03:20:32.674Z,1003.1
2022-08-03T03:21:34.742Z,1003
2022-08-03T03:22:36.669Z,1003
2022-08-03T03:23:38.684Z,1003
2022-08-03T03:24:40.672Z,1003
2022-08-03T03:25:42.736Z,1003
2022-08-03T03:26:46.744Z,1003
2022-08-03T03:27:49.544Z,1003.1
2022-08-03T03:28:50.685Z,1003
2022-08-03T03:29:52.683Z,1003.1
2022-08-03T03:30:54.677Z,1003.1
2022-08-03T03:31:56.718Z,1003.1
2022-08-03T03:32:58.684Z,1003.1
2022-08-03T03:34:00.808Z,1003.1
2022-08-03T03:35:02.711Z,1003.1
2022-08-03T03:36:04.711Z,1003.1
2022-08-03T03:37:06.733Z,1003.1
2022-08-03T03:38:08.695Z,1003.1
2022-08-03T03:39:14.267Z,1003.1
2022-08-03T03:40:12.707Z,1003.2
2022-08-03T03:41:14.699Z,1003.1
2022-08-03T03:42:17.108Z,1003.2
2022-08-03T03:43:18.807Z,1003.2
2022-08-03T03:44:20.719Z,1003.1
2022-08-03T03:45:22.750Z,1003.2
2022-08-03T03:46:24.708Z,1003.1
2022-08-03T03:47:32.201Z,1003.1
2022-08-03T03:48:28.711Z,1003.1
2022-08-03T03:49:30.820Z,1003.1
2022-08-03T03:50:32.716Z,1003.1
2022-08-03T03:51:34.712Z,1003.1
2022-08-03T03:52:36.774Z,1003.1
2022-08-03T03:53:38.724Z,1003.2
2022-08-03T03:54:40.723Z,1003.1
2022-08-03T03:55:59.062Z,1003.1
2022-08-03T03:56:44.730Z,1003.2
2022-08-03T03:57:46.755Z,1003.2
2022-08-03T03:58:48.743Z,1003.2
2022-08-03T03:59:50.724Z,1003.2
2022-08-03T04:00:52.771Z,1003.2
2022-08-03T04:01:59.089Z,1003.2
2022-08-03T04:02:56.769Z,1003.2
2022-08-03T04:03:58.726Z,1003.2
2022-08-03T04:05:00.751Z,1003.2
2022-08-03T04:06:02.772Z,1003.2
2022-08-03T04:07:04.749Z,1003.2
2022-08-03T04:08:06.778Z,1003.2
2022-08-03T04:09:08.752Z,1003.2
2022-08-03T04:10:14.671Z,1003.2
2022-08-03T04:11:12.760Z,1003.2
2022-08-03T04:12:14.887Z,1003.2
2022-08-03T04:13:16.827Z,1003.2
2022-08-03T04:14:18.753Z,1003.2
2022-08-03T04:15:20.763Z,1003.2
2022-08-03T04:16:22.763Z,1003.2
2022-08-03T04:17:24.772Z,1003.2
2022-08-03T04:18:26.829Z,1003.2
2022-08-03T04:19:28.754Z,1003.2
2022-08-03T04:20:30.768Z,1003.2
2022-08-03T04:21:32.755Z,1003.2
2022-08-03T04:22:34.758Z,1003.2
2022-08-03T04:23:36.798Z,1003.2
2022-08-03T04:24:38.763Z,1003.2
2022-08-03T04:25:40.759Z,1003.2
2022-08-03T04:26:42.776Z,1003.3
2022-08-03T04:27:44.903Z,1003.3
2022-08-03T04:28:46.810Z,1003.2
2022-08-03T04:29:48.859Z,1003.3
2022-08-03T04:30:50.781Z,1003.3
2022-08-03T04:31:52.814Z,1003.3
2022-08-03T04:32:54.794Z,1003.3
2022-08-03T04:33:56.800Z,1003.3
2022-08-03T04:34:58.784Z,1003.3
2022-08-03T04:36:02.445Z,1003.3
2022-08-03T04:37:02.816Z,1003.3
2022-08-03T04:38:04.819Z,1003.3
2022-08-03T04:39:06.860Z,1003.3
2022-08-03T04:40:08.876Z,1003.3
2022-08-03T04:41:10.800Z,1003.3
2022-08-03T04:42:12.796Z,1003.3
2022-08-03T04:43:14.836Z,1003.3
2022-08-03T04:44:16.832Z,1003.4
2022-08-03T04:45:18.828Z,1003.4
2022-08-03T04:46:20.861Z,1003.4
2022-08-03T04:47:22.814Z,1003.4
2022-08-03T04:48:24.805Z,1003.4
2022-08-03T04:49:26.980Z,1003.3
2022-08-03T04:50:28.854Z,1003.3
2022-08-03T04:51:30.807Z,1003.3
2022-08-03T04:52:32.830Z,1003.3
2022-08-03T04:53:34.819Z,1003.3
2022-08-03T04:54:36.854Z,1003.3
2022-08-03T04:55:38.855Z,1003.3
2022-08-03T04:56:40.819Z,1003.3
2022-08-03T04:57:42.819Z,1003.3
2022-08-03T04:58:44.828Z,1003.3
2022-08-03T04:59:46.852Z,1003.2
2022-08-03T05:00:48.845Z,1003.3
2022-08-03T05:01:50.927Z,1003.3
2022-08-03T05:02:52.834Z,1003.2
2022-08-03T05:03:54.840Z,1003.3
2022-08-03T05:04:56.895Z,1003.3
2022-08-03T05:06:00.633Z,1003.2
2022-08-03T05:07:00.842Z,1003.2
2022-08-03T05:08:03.435Z,1003.2
2022-08-03T05:09:04.851Z,1003.2
2022-08-03T05:10:10.181Z,1003.3
2022-08-03T05:11:08.878Z,1003.2
2022-08-03T05:12:10.853Z,1003.2
2022-08-03T05:13:12.840Z,1003.2
2022-08-03T05:14:15.019Z,1003.3
2022-08-03T05:15:16.909Z,1003.2
2022-08-03T05:16:18.910Z,1003.3
2022-08-03T05:17:20.911Z,1003.3
2022-08-03T05:18:22.857Z,1003.3
2022-08-03T05:19:24.866Z,1003.3
2022-08-03T05:20:26.877Z,1003.3
2022-08-03T05:21:41.867Z,1003.2
2022-08-03T05:22:30.867Z,1003.2
2022-08-03T05:23:32.872Z,1003.2
2022-08-03T05:24:34.874Z,1003.2
2022-08-03T05:25:36.865Z,1003.3
2022-08-03T05:26:38.943Z,1003.3
2022-08-03T05:27:40.863Z,1003.3
2022-08-03T05:28:50.036Z,1003.3
2022-08-03T05:29:44.876Z,1003.2
2022-08-03T05:30:46.898Z,1003.2
2022-08-03T05:31:48.913Z,1003.3
2022-08-03T05:32:50.882Z,1003.2
2022-08-03T05:33:52.887Z,1003.3
2022-08-03T05:34:54.917Z,1003.3
2022-08-03T05:36:00.800Z,1003.3
2022-08-03T05:36:58.896Z,1003.3
2022-08-03T05:38:00.931Z,1003.4
2022-08-03T05:39:03.096Z,1003.4
2022-08-03T05:40:05.056Z,1003.4
2022-08-03T05:41:20.680Z,1003.4
2022-08-03T05:42:08.884Z,1003.4
2022-08-03T05:43:10.890Z,1003.4
2022-08-03T05:44:12.943Z,1003.4
2022-08-03T05:45:14.906Z,1003.4
2022-08-03T05:46:17.244Z,1003.4
2022-08-03T05:47:18.913Z,1003.4
2022-08-03T05:48:20.937Z,1003.4
2022-08-03T05:49:22.974Z,1003.4
2022-08-03T05:50:24.947Z,1003.4
2022-08-03T05:51:26.897Z,1003.4
2022-08-03T05:52:28.918Z,1003.4
2022-08-03T05:53:30.947Z,1003.4
2022-08-03T05:54:55.772Z,1003.4
2022-08-03T05:55:34.921Z,1003.4
2022-08-03T05:56:36.915Z,1003.4
2022-08-03T05:57:38.933Z,1003.4
2022-08-03T05:58:40.931Z,1003.4
2022-08-03T05:59:54.046Z,1003.4
2022-08-03T06:00:44.945Z,1003.4
2022-08-03T06:01:46.990Z,1003.4
2022-08-03T06:02:48.931Z,1003.4
2022-08-03T06:03:50.933Z,1003.4
2022-08-03T06:04:52.947Z,1003.4
2022-08-03T06:05:55.521Z,1003.4
2022-08-03T06:06:56.951Z,1003.4
2022-08-03T06:07:58.927Z,1003.4
2022-08-03T06:09:00.932Z,1003.4
2022-08-03T06:10:34.587Z,1003.5
2022-08-03T06:11:04.958Z,1003.4
2022-08-03T06:12:09.138Z,1003.5
2022-08-03T06:13:08.945Z,1003.4
2022-08-03T06:14:10.960Z,1003.5
2022-08-03T06:15:12.971Z,1003.5
2022-08-03T06:16:14.960Z,1003.5
2022-08-03T06:17:16.971Z,1003.5
2022-08-03T06:18:18.973Z,1003.5
2022-08-03T06:19:20.959Z,1003.5
2022-08-03T06:20:26.653Z,1003.5
2022-08-03T06:21:24.985Z,1003.5
2022-08-03T06:22:27.222Z,1003.5
2022-08-03T06:23:53.683Z,1003.6
2022-08-03T06:24:30.982Z,1003.6
2022-08-03T06:25:32.977Z,1003.5
2022-08-03T06:26:34.966Z,1003.5
2022-08-03T06:27:37.707Z,1003.5
2022-08-03T06:28:52.147Z,1003.5
2022-08-03T06:29:40.984Z,1003.5
2022-08-03T06:30:42.988Z,1003.4
2022-08-03T06:31:44.979Z,1003.3
2022-08-03T06:32:51.538Z,1003.2
2022-08-03T06:34:32.053Z,1003.1
2022-08-03T06:34:50.989Z,1003
2022-08-03T06:35:52.989Z,1002.8
2022-08-03T06:36:58.718Z,1002.8
2022-08-03T06:37:57.001Z,1002.8
2022-08-03T06:38:59.067Z,1002.7
2022-08-03T06:40:01.051Z,1002.7
2022-08-03T06:41:03.025Z,1002.7
2022-08-03T06:42:05.004Z,1002.7
2022-08-03T06:43:09.531Z,1002.7
2022-08-03T06:44:09.042Z,1002.7
2022-08-03T06:45:10.999Z,1002.7
2022-08-03T06:46:13.042Z,1002.7
2022-08-03T06:47:15.039Z,1002.7
2022-08-03T06:48:17.020Z,1002.7
2022-08-03T06:49:19.102Z,1002.7
2022-08-03T06:50:25.830Z,1002.7
2022-08-03T06:51:23.010Z,1002.7
2022-08-03T06:52:44.863Z,1002.7
2022-08-03T06:53:27.014Z,1002.7
2022-08-03T06:54:32.813Z,1002.7
2022-08-03T06:55:31.065Z,1002.7
2022-08-03T06:56:33.331Z,1002.7
2022-08-03T06:57:35.016Z,1002.7
2022-08-03T06:58:37.024Z,1002.8
2022-08-03T07:00:07.144Z,1002.8
2022-08-03T07:00:41.110Z,1002.8
2022-08-03T07:01:43.087Z,1002.8
2022-08-03T07:02:45.956Z,1002.8
2022-08-03T07:03:48.408Z,1002.8
2022-08-03T07:04:50.038Z,1002.8
2022-08-03T07:05:51.473Z,1002.8
2022-08-03T07:06:52.415Z,1002.8
2022-08-03T07:07:54.079Z,1002.8
2022-08-03T07:08:59.353Z,1002.8
2022-08-03T07:09:58.367Z,1002.8
2022-08-03T07:11:00.101Z,1002.8
2022-08-03T07:12:02.089Z,1002.8
2022-08-03T07:13:04.066Z,1002.8
2022-08-03T07:14:06.080Z,1002.8
2022-08-03T07:15:09.202Z,1002.8
2022-08-03T07:16:11.092Z,1002.8
2022-08-03T07:17:13.056Z,1002.8
2022-08-03T07:18:15.082Z,1002.8
2022-08-03T07:19:17.069Z,1002.8
2022-08-03T07:20:19.193Z,1002.8
2022-08-03T07:21:21.069Z,1002.9
2022-08-03T07:22:23.080Z,1002.8
2022-08-03T07:23:25.106Z,1002.8
2022-08-03T07:24:27.125Z,1002.8
2022-08-03T07:25:29.124Z,1002.8
2022-08-03T07:26:31.092Z,1002.8
2022-08-03T07:27:33.079Z,1002.8
2022-08-03T07:28:35.127Z,1002.8
2022-08-03T07:29:37.076Z,1002.9
2022-08-03T07:30:39.130Z,1002.9
2022-08-03T07:31:41.090Z,1002.9
2022-08-03T07:32:49.023Z,1002.9
2022-08-03T07:33:45.166Z,1002.9
2022-08-03T07:34:47.093Z,1002.9
2022-08-03T07:35:49.086Z,1002.9
2022-08-03T07:36:51.101Z,1002.9
2022-08-03T07:37:54.368Z,1002.9
2022-08-03T07:38:55.162Z,1002.9
2022-08-03T07:39:57.099Z,1002.9
2022-08-03T07:40:59.131Z,1002.9
2022-08-03T07:42:01.103Z,1002.9
2022-08-03T07:43:02.525Z,1002.9
2022-08-03T07:44:04.120Z,1002.9
2022-08-03T07:45:06.199Z,1002.9
2022-08-03T07:46:08.150Z,1002.9
2022-08-03T07:47:10.149Z,1002.9
2022-08-03T07:48:12.743Z,1002.9
2022-08-03T07:49:14.241Z,1002.9
2022-08-03T07:50:16.170Z,1002.9
2022-08-03T07:51:18.160Z,1002.9
2022-08-03T07:52:20.126Z,1002.9
2022-08-03T07:53:22.134Z,1002.9
2022-08-03T07:54:24.162Z,1002.9
2022-08-03T07:55:26.135Z,1002.9
2022-08-03T07:56:28.177Z,1002.9
2022-08-03T07:57:30.133Z,1003
2022-08-03T07:58:32.163Z,1003
2022-08-03T07:59:49.010Z,1003
2022-08-03T08:00:35.565Z,1003
2022-08-03T08:01:36.616Z,1003.1
2022-08-03T08:02:38.151Z,1003.1
2022-08-03T08:03:41.094Z,1003
2022-08-03T08:04:42.158Z,1003
2022-08-03T08:05:44.176Z,1003
2022-08-03T08:06:46.181Z,1003
2022-08-03T08:07:50.962Z,1003
2022-08-03T08:08:50.150Z,1003.1
2022-08-03T08:09:51.559Z,1003.1
2022-08-03T08:10:57.660Z,1003.1
2022-08-03T08:11:54.216Z,1003
2022-08-03T08:12:55.588Z,1003.1
2022-08-03T08:13:57.318Z,1003
2022-08-03T08:14:59.170Z,1003.1
2022-08-03T08:16:01.177Z,1003.1
2022-08-03T08:17:06.987Z,1003.1
2022-08-03T08:18:05.219Z,1003.1
2022-08-03T08:19:06.575Z,1003.1
2022-08-03T08:20:08.223Z,1003
2022-08-03T08:21:10.194Z,1003.1
2022-08-03T08:22:11.582Z,1003.1
2022-08-03T08:23:19.945Z,1003.1
2022-08-03T08:24:18.052Z,1003.1
2022-08-03T08:25:17.205Z,1003.1
2022-08-03T08:26:19.222Z,1003.1
2022-08-03T08:27:21.191Z,1003.1
2022-08-03T08:28:32.006Z,1003.1
2022-08-03T08:29:25.679Z,1003.1
2022-08-03T08:30:26.594Z,1003.1
2022-08-03T08:31:27.586Z,1003.1
2022-08-03T08:32:29.224Z,1003.1
2022-08-03T08:33:48.222Z,1003.1
2022-08-03T08:34:33.536Z,1003.1
2022-08-03T08:35:35.249Z,1003.1
2022-08-03T08:36:36.798Z,1003.1
2022-08-03T08:37:38.201Z,1003.2
2022-08-03T08:38:39.636Z,1003.1
2022-08-03T08:39:41.637Z,1003.1
2022-08-03T08:40:43.788Z,1003.1
2022-08-03T08:41:45.951Z,1003.1
2022-08-03T08:42:57.793Z,1003.1
2022-08-03T08:43:47.217Z,1003.1
2022-08-03T08:44:48.841Z,1003.1
2022-08-03T08:45:49.744Z,1003.1
2022-08-03T08:46:51.389Z,1003.1
2022-08-03T08:47:56.905Z,1003.1
2022-08-03T08:48:54.853Z,1003.1
2022-08-03T08:50:09.121Z,1003.1
2022-08-03T08:50:58.271Z,1003.2
2022-08-03T08:52:01.317Z,1003.2
2022-08-03T08:53:02.434Z,1003.1
2022-08-03T08:54:04.313Z,1003.2
2022-08-03T08:55:06.515Z,1003.2
2022-08-03T08:56:07.607Z,1003.2
2022-08-03T08:57:21.236Z,1003.2
2022-08-03T08:58:09.667Z,1003.1
2022-08-03T08:59:11.265Z,1003.1
2022-08-03T09:00:12.816Z,1003.1
2022-08-03T09:01:13.681Z,1003.1
2022-08-03T09:02:14.748Z,1003.2
2022-08-03T09:03:22.444Z,1003.1
2022-08-03T09:04:16.673Z,1003.2
2022-08-03T09:05:17.748Z,1003.2
2022-08-03T09:06:18.652Z,1003.1
2022-08-03T09:07:20.693Z,1003.2
2022-08-03T09:08:20.681Z,1003.2
2022-08-03T09:10:00.412Z,1003.1
2022-08-03T09:10:22.702Z,1003.1
2022-08-03T09:11:51.840Z,1003.1
2022-08-03T09:12:42.112Z,1003.1
2022-08-03T09:13:25.646Z,1003.1
2022-08-03T09:14:35.242Z,1003.2
2022-08-03T09:15:27.697Z,1003.2
2022-08-03T09:16:28.664Z,1003.2
2022-08-03T09:17:29.658Z,1003.2
2022-08-03T09:18:32.638Z,1003.2
2022-08-03T09:19:31.698Z,1003.2
2022-08-03T09:20:32.803Z,1003.2
2022-08-03T09:21:34.910Z,1003.2
2022-08-03T09:22:35.671Z,1003.2
2022-08-03T09:23:59.392Z,1003.2
2022-08-03T09:24:41.375Z,1003.2
2022-08-03T09:25:38.714Z,1003.3
2022-08-03T09:26:39.697Z,1003.2
2022-08-03T09:27:40.690Z,1003.2
2022-08-03T09:28:52.930Z,1003.2
2022-08-03T09:29:42.688Z,1003.2
2022-08-03T09:30:43.754Z,1003.2
2022-08-03T09:31:45.265Z,1003.3
2022-08-03T09:32:45.698Z,1003.3
2022-08-03T09:33:46.714Z,1003.3
2022-08-03T09:34:47.725Z,1003.2
2022-08-03T09:35:57.702Z,1003.2
2022-08-03T09:36:49.770Z,1003.2
2022-08-03T09:38:08.607Z,1003.3
2022-08-03T09:38:51.714Z,1003.3
2022-08-03T09:39:52.724Z,1003.2
2022-08-03T09:40:57.422Z,1003.2
2022-08-03T09:41:54.776Z,1003.3
2022-08-03T09:42:55.745Z,1003.3
2022-08-03T09:43:56.739Z,1003.3
2022-08-03T09:44:57.722Z,1003.3
2022-08-03T09:45:58.764Z,1003.3
2022-08-03T09:46:59.824Z,1003.3
2022-08-03T09:48:00.735Z,1003.2
2022-08-03T09:49:01.886Z,1003.2
2022-08-03T09:50:02.883Z,1003.2
2022-08-03T09:51:13.731Z,1003.2
2022-08-03T09:52:33.350Z,1003.3
2022-08-03T09:53:05.756Z,1003.2
2022-08-03T09:54:12.715Z,1003.2
2022-08-03T09:55:07.781Z,1003.2
2022-08-03T09:56:33.155Z,1003.2
2022-08-03T09:57:09.774Z,1003.3
2022-08-03T09:58:10.998Z,1003.3
2022-08-03T09:59:11.720Z,1003.3
2022-08-03T10:00:12.947Z,1003.2
2022-08-03T10:01:14.852Z,1003.2
2022-08-03T10:02:14.788Z,1003.2
2022-08-03T10:03:15.805Z,1003.3
2022-08-03T10:04:16.744Z,1003.3
2022-08-03T10:05:19.457Z,1003.2
2022-08-03T10:06:18.776Z,1003.2
2022-08-03T10:07:20.047Z,1003.2
2022-08-03T10:08:20.792Z,1003.2
2022-08-03T10:09:21.837Z,1003.2
2022-08-03T10:10:28.614Z,1003.2
2022-08-03T10:11:23.808Z,1003.2
2022-08-03T10:12:24.764Z,1003.2
2022-08-03T10:13:25.837Z,1003.2
2022-08-03T10:14:26.795Z,1003.2
2022-08-03T10:16:20.766Z,1003.2
2022-08-03T10:16:28.796Z,1003.2
2022-08-03T10:17:29.798Z,1003.2
2022-08-03T10:18:30.805Z,1003.2
2022-08-03T10:19:31.810Z,1003.2
2022-08-03T10:20:32.986Z,1003.2
2022-08-03T10:21:33.938Z,1003.2
2022-08-03T10:22:34.820Z,1003.1
2022-08-03T10:23:35.820Z,1003.2
2022-08-03T10:24:37.008Z,1003.1
2022-08-03T10:25:37.854Z,1003.1
2022-08-03T10:26:38.840Z,1003.2
2022-08-03T10:27:39.823Z,1003.2
2022-08-03T10:28:50.738Z,1003.2
2022-08-03T10:29:51.881Z,1003.1
2022-08-03T10:30:52.839Z,1003.2
2022-08-03T10:31:54.625Z,1003.2
2022-08-03T10:32:54.863Z,1003.1
2022-08-03T10:33:55.849Z,1003.1
2022-08-03T10:35:00.086Z,1003.1
2022-08-03T10:35:57.834Z,1003.2
2022-08-03T10:36:58.831Z,1003.1
2022-08-03T10:37:59.833Z,1003.1
2022-08-03T10:39:00.839Z,1003.2
2022-08-03T10:40:02.231Z,1003.2
2022-08-03T10:41:02.880Z,1003.2
2022-08-03T10:42:03.955Z,1003.2
2022-08-03T10:43:04.829Z,1003.1
2022-08-03T10:44:05.918Z,1003.1
2022-08-03T10:45:07.045Z,1003.1
2022-08-03T10:46:07.831Z,1003.1
2022-08-03T10:47:08.848Z,1003.1
2022-08-03T10:48:09.889Z,1003.1
2022-08-03T10:49:11.009Z,1003.1
2022-08-03T10:50:11.849Z,1003.2
2022-08-03T10:51:12.849Z,1003.2
2022-08-03T10:52:31.425Z,1003.2
2022-08-03T10:53:14.853Z,1003.1
2022-08-03T10:54:15.934Z,1003.1
2022-08-03T10:55:16.874Z,1003.1
2022-08-03T10:56:18.196Z,1003.2
2022-08-03T10:57:18.850Z,1003.2
2022-08-03T10:58:25.170Z,1003.2
2022-08-03T10:59:28.084Z,1003.1
2022-08-03T11:00:21.871Z,1003.1
2022-08-03T11:01:22.872Z,1003.2
2022-08-03T11:02:23.861Z,1003.2
2022-08-03T11:03:24.871Z,1003.1
2022-08-03T11:04:25.905Z,1003.2
2022-08-03T11:05:26.916Z,1003.2
2022-08-03T11:06:27.878Z,1003.2
2022-08-03T11:07:28.901Z,1003.2
2022-08-03T11:08:29.860Z,1003.2
2022-08-03T11:09:30.911Z,1003.2
2022-08-03T11:10:31.961Z,1003.1
2022-08-03T11:11:32.902Z,1003.1
2022-08-03T11:12:33.890Z,1003.1
2022-08-03T11:13:34.899Z,1003.1
2022-08-03T11:14:35.887Z,1003.1
2022-08-03T11:15:37.068Z,1003.2
2022-08-03T11:16:37.895Z,1003.1
2022-08-03T11:17:46.085Z,1003.1
2022-08-03T11:18:39.900Z,1003.1
2022-08-03T11:19:56.444Z,1003.1
2022-08-03T11:20:41.947Z,1003.1
2022-08-03T11:21:42.967Z,1003.1
2022-08-03T11:22:43.909Z,1003.1
2022-08-03T11:24:02.408Z,1003.1
2022-08-03T11:24:45.874Z,1003.1
2022-08-03T11:25:54.467Z,1003.1
2022-08-03T11:26:47.949Z,1003.1
2022-08-03T11:27:48.954Z,1003
2022-08-03T11:28:49.906Z,1003
2022-08-03T11:29:50.925Z,1003
2022-08-03T11:30:51.938Z,1003
2022-08-03T11:31:53.110Z,1003.1
2022-08-03T11:32:53.917Z,1003
2022-08-03T11:33:54.934Z,1003
2022-08-03T11:34:55.964Z,1003
2022-08-03T11:35:56.932Z,1003
2022-08-03T11:36:57.960Z,1003
2022-08-03T11:38:01.697Z,1003
2022-08-03T11:38:59.922Z,1003
2022-08-03T11:40:02.660Z,1003
2022-08-03T11:41:01.972Z,1003
2022-08-03T11:42:03.139Z,1003
2022-08-03T11:43:03.943Z,1003
2022-08-03T11:44:04.944Z,1003
2022-08-03T11:45:06.231Z,1003
2022-08-03T11:46:06.991Z,1002.9
2022-08-03T11:47:08.001Z,1002.9
2022-08-03T11:48:08.968Z,1002.9
2022-08-03T11:49:11.200Z,1002.9
2022-08-03T11:50:10.943Z,1003
2022-08-03T11:51:11.966Z,1002.9
2022-08-03T11:52:13.013Z,1003
2022-08-03T11:53:13.962Z,1003
2022-08-03T11:54:14.959Z,1003
2022-08-03T11:55:15.970Z,1002.9
2022-08-03T11:56:17.004Z,1003
2022-08-03T11:57:18.128Z,1003
2022-08-03T11:59:00.372Z,1002.9
2022-08-03T11:59:21.951Z,1002.9
2022-08-03T12:00:21.046Z,1002.9
2022-08-03T12:01:23.184Z,1002.9
2022-08-03T12:02:22.989Z,1002.9
2022-08-03T12:03:24.090Z,1002.9
2022-08-03T12:04:24.979Z,1002.9
2022-08-03T12:05:25.981Z,1002.9
2022-08-03T12:06:27.237Z,1002.9
2022-08-03T12:08:02.949Z,1002.9
2022-08-03T12:08:30.048Z,1002.9
2022-08-03T12:09:31.996Z,1002.8
2022-08-03T12:10:33.032Z,1002.8
2022-08-03T12:11:34.062Z,1002.8
2022-08-03T12:12:35.034Z,1002.8
2022-08-03T12:13:57.053Z,1002.8
2022-08-03T12:14:47.921Z,1002.8
2022-08-03T12:15:38.024Z,1002.9
2022-08-03T12:16:39.003Z,1002.8
2022-08-03T12:17:40.030Z,1002.8
2022-08-03T12:18:41.054Z,1002.8
2022-08-03T12:19:42.008Z,1002.8
2022-08-03T12:20:42.993Z,1002.8
2022-08-03T12:21:44.038Z,1002.8
2022-08-03T12:22:45.032Z,1002.8
2022-08-03T12:23:46.055Z,1002.8
2022-08-03T12:24:47.740Z,1002.8
2022-08-03T12:25:48.057Z,1002.8
2022-08-03T12:26:57.187Z,1002.8
2022-08-03T12:27:50.031Z,1002.7
2022-08-03T12:35:27.120Z,1002.7
2022-08-03T12:36:28.074Z,1002.7
2022-08-03T12:37:29.108Z,1002.7
2022-08-03T12:38:30.055Z,1002.7
2022-08-03T12:39:31.349Z,1002.7
2022-08-03T12:40:32.161Z,1002.7
2022-08-03T12:41:34.011Z,1002.7
2022-08-03T12:42:34.869Z,1002.7
2022-08-03T12:43:36.634Z,1002.6
2022-08-03T12:44:36.065Z,1002.7
2022-08-03T12:45:37.089Z,1002.7
2022-08-03T12:46:38.113Z,1002.7
2022-08-03T12:47:39.071Z,1002.6
2022-08-03T12:48:40.083Z,1002.6
2022-08-03T12:49:41.100Z,1002.6
2022-08-03T12:50:42.108Z,1002.6
2022-08-03T12:51:43.081Z,1002.6
2022-08-03T12:52:44.114Z,1002.6
2022-08-03T12:53:45.049Z,1002.6
2022-08-03T12:54:46.081Z,1002.6
2022-08-03T12:55:56.991Z,1002.6
2022-08-03T12:56:48.127Z,1002.6
2022-08-03T12:57:49.104Z,1002.6
2022-08-03T12:58:50.098Z,1002.6
2022-08-03T12:59:52.985Z,1002.6
2022-08-03T13:00:52.153Z,1002.6
2022-08-03T13:01:55.020Z,1002.6
2022-08-03T13:03:11.195Z,1002.6